Time;durP1;ratioP1;P1;durP2;ratioP2;P2;SDS_P1;SDS_P2;PMS_P1;PMS_P2;Temp;Humidity;BMP_temperature;BMP_pressure;BME280_temperature;BME280_humidity;BME280_pressure;Samples;Min_cycle;Max_cycle;Signal;HPM_P1;HPM_P2
2022/08/11 00:02:05;;;;;;;3.80;3.17;;;;;;;26.07;48.20;95087.59;5039936;28;20504;-57
2022/08/11 00:04:34;;;;;;;3.80;3.40;;;;;;;26.01;48.79;95073.28;5028333;28;20017;-58
2022/08/11 00:07:01;;;;;;;4.20;3.60;;;;;;;26.04;48.69;95083.19;5043810;28;20056;-56
2022/08/11 00:09:36;;;;;;;4.57;3.53;;;;;;;26.01;49.05;95078.75;5045055;28;20049;-57
2022/08/11 00:12:02;;;;;;;4.45;3.58;;;;;;;26.04;48.83;95083.19;5045847;28;20106;-58
2022/08/11 00:14:30;;;;;;;4.40;3.97;;;;;;;26.03;48.80;95081.69;5045448;28;20543;-57
2022/08/11 00:17:14;;;;;;;4.38;3.50;;;;;;;26.01;48.57;95089.72;5046254;28;20171;-57
2022/08/11 00:19:42;;;;;;;4.50;3.30;;;;;;;25.97;48.86;95083.06;5025859;28;20060;-56
2022/08/11 00:22:07;;;;;;;5.78;4.03;;;;;;;25.95;48.73;95074.66;5044700;28;20086;-56
2022/08/11 00:24:36;;;;;;;5.22;3.83;;;;;;;25.74;48.92;95037.47;5027822;28;20033;-57
2022/08/11 00:27:02;;;;;;;4.28;3.60;;;;;;;25.95;48.99;95075.38;5043862;28;20033;-57
2022/08/11 00:29:27;;;;;;;5.07;3.65;;;;;;;25.95;49.16;95075.38;5043580;28;20528;-57
2022/08/11 00:31:54;;;;;;;4.10;3.63;;;;;;;25.79;48.98;95047.59;5044430;28;20561;-58
2022/08/11 00:34:25;;;;;;;4.72;3.88;;;;;;;25.90;49.09;95068.03;5043677;28;20044;-56
2022/08/11 00:37:03;;;;;;;4.57;3.47;;;;;;;25.82;49.20;95055.47;5026681;28;20043;-58
2022/08/11 00:39:30;;;;;;;4.53;3.70;;;;;;;25.92;49.25;95070.97;5044936;28;20025;-56
2022/08/11 00:42:01;;;;;;;4.68;3.60;;;;;;;25.93;49.13;95077.91;5049371;28;20045;-56
2022/08/11 00:44:55;;;;;;;4.63;3.85;;;;;;;25.95;49.28;95071.91;5068385;28;20044;-56
2022/08/11 00:47:24;;;;;;;4.20;3.78;;;;;;;25.94;49.26;95073.16;5063959;28;20099;-58
2022/08/11 00:50:10;;;;;;;4.00;3.53;;;;;;;25.94;49.14;95073.91;5064178;28;20044;-57
2022/08/11 00:52:58;;;;;;;4.32;3.40;;;;;;;25.87;49.43;95057.38;5063345;28;20056;-57
2022/08/11 00:55:48;;;;;;;4.82;3.90;;;;;;;25.92;49.24;95064.75;5065280;28;20020;-58
2022/08/11 00:58:41;;;;;;;4.18;3.63;;;;;;;25.89;49.53;95066.53;5053577;28;20084;-58
2022/08/11 01:01:16;;;;;;;5.05;3.55;;;;;;;25.90;49.41;95068.03;5059551;28;20063;-58
2022/08/11 01:04:06;;;;;;;4.05;3.65;;;;;;;25.87;49.43;95069.06;5041762;28;20061;-58
2022/08/11 01:06:51;;;;;;;4.22;3.83;;;;;;;25.86;49.41;95067.59;5059225;28;20041;-57
2022/08/11 01:09:53;;;;;;;4.53;3.50;;;;;;;25.85;49.35;95071.56;5050639;28;20044;-60
2022/08/11 01:12:40;;;;;;;5.53;3.90;;;;;;;25.84;49.32;95067.38;5035250;28;20044;-59
2022/08/11 01:15:14;;;;;;;4.75;3.53;;;;;;;25.79;49.46;95059.97;5038802;28;20055;-59
2022/08/11 01:17:49;;;;;;;3.95;3.40;;;;;;;25.82;49.38;95061.66;5019156;28;20136;-57
2022/08/11 01:20:51;;;;;;;4.82;3.67;;;;;;;25.82;49.70;95061.66;5041984;28;20620;-59
2022/08/11 01:23:41;;;;;;;3.78;3.40;;;;;;;25.80;49.54;95064.22;5043351;28;20531;-59
2022/08/11 01:26:22;;;;;;;4.13;3.47;;;;;;;25.80;49.27;95069.69;5042187;28;20045;-60
2022/08/11 01:29:25;;;;;;;4.07;3.67;;;;;;;25.80;49.42;95056.00;5043520;28;20028;-57
2022/08/11 01:32:15;;;;;;;5.25;3.38;;;;;;;25.79;49.56;95055.78;5043333;28;20037;-58
2022/08/11 01:34:56;;;;;;;5.03;3.42;;;;;;;25.79;49.67;95055.78;5033999;28;20033;-59
2022/08/11 01:37:47;;;;;;;4.20;3.80;;;;;;;25.71;49.58;95047.47;5043302;28;20021;-57
2022/08/11 01:40:47;;;;;;;4.55;3.70;;;;;;;25.76;49.51;95057.56;5047823;28;20701;-58
2022/08/11 01:46:46;;;;;;;4.50;3.47;;;;;;;25.72;49.76;95050.94;5055650;28;20052;-59
2022/08/11 01:49:18;;;;;;;4.57;3.55;;;;;;;25.53;49.72;95022.88;5018205;28;20076;-59
2022/08/11 01:52:08;;;;;;;4.53;3.75;;;;;;;25.72;49.86;95053.66;5029043;28;20047;-59
2022/08/11 01:54:48;;;;;;;5.85;3.60;;;;;;;25.71;49.78;95054.91;5036015;28;20056;-58
2022/08/11 01:57:25;;;;;;;4.68;3.95;;;;;;;25.72;50.00;95056.41;5034795;28;20048;-57
2022/08/11 01:59:53;;;;;;;5.15;3.90;;;;;;;25.57;49.88;95031.50;5008018;28;20042;-59
2022/08/11 02:02:47;;;;;;;4.20;3.67;;;;;;;25.70;49.79;95053.47;5005376;28;20041;-59
2022/08/11 02:05:40;;;;;;;5.35;3.90;;;;;;;25.68;49.93;95055.97;5042742;28;20055;-59
2022/08/11 02:08:24;;;;;;;7.35;3.92;;;;;;;25.64;50.13;95050.06;5039718;28;20037;-56
2022/08/11 02:13:56;;;;;;;4.78;3.85;;;;;;;25.63;50.19;95054.03;5035186;28;20331;-56
2022/08/11 02:16:39;;;;;;;4.55;4.05;;;;;;;25.58;50.32;95041.19;5043575;28;20033;-58
2022/08/11 02:25:19;;;;;;;5.10;4.22;;;;;;;25.44;50.17;95036.94;5015086;28;20048;-57
2022/08/11 02:28:00;;;;;;;4.25;3.67;;;;;;;25.57;49.92;95050.66;5012981;28;20026;-56
2022/08/11 02:30:27;;;;;;;5.28;4.45;;;;;;;25.55;50.10;95047.72;5031877;28;20067;-56
2022/08/11 02:33:23;;;;;;;4.72;3.70;;;;;;;25.56;50.22;95060.13;5013784;28;20051;-58
2022/08/11 02:36:20;;;;;;;5.13;3.88;;;;;;;25.53;50.21;95056.44;5029007;28;20546;-57
2022/08/11 02:39:08;;;;;;;6.55;4.10;;;;;;;25.54;49.98;95051.69;5021235;28;20045;-59
2022/08/11 02:44:50;;;;;;;5.07;4.18;;;;;;;25.52;50.24;95043.28;5028153;28;20044;-58
2022/08/11 02:51:15;;;;;;;5.90;4.22;;;;;;;25.48;50.25;95042.84;5048819;28;20060;-56
2022/08/11 02:53:53;;;;;;;6.40;3.90;;;;;;;25.45;50.37;95049.38;5027570;28;20040;-57
2022/08/11 02:56:43;;;;;;;5.00;4.00;;;;;;;25.43;50.15;95049.16;5024951;28;20044;-57
2022/08/11 02:59:49;;;;;;;;;;;;;;;25.47;50.38;95050.31;4979752;28;20033;-56
2022/08/11 03:02:33;;;;;;;4.78;4.13;;;;;;;25.46;50.33;95045.38;5014517;28;19982;-56
2022/08/11 03:05:15;;;;;;;6.35;3.95;;;;;;;25.45;50.32;95049.38;5024940;28;20507;-55
2022/08/11 03:07:51;;;;;;;6.10;4.20;;;;;;;25.40;50.55;95048.19;5042184;28;20036;-56
2022/08/11 03:10:30;;;;;;;4.97;3.90;;;;;;;25.44;50.32;95064.28;5013427;28;20051;-57
2022/08/11 03:19:06;;;;;;;5.13;4.15;;;;;;;25.40;50.08;95059.13;5037212;28;20149;-55
2022/08/11 03:21:37;;;;;;;6.13;3.97;;;;;;;25.37;50.39;95062.19;5028936;28;20657;-55
2022/08/11 03:24:20;;;;;;;4.80;3.85;;;;;;;25.39;50.30;95062.38;5008304;28;20075;-55
2022/08/11 03:27:01;;;;;;;5.60;3.92;;;;;;;25.36;50.39;95057.97;5041600;28;20037;-57
2022/08/11 03:29:32;;;;;;;4.68;4.15;;;;;;;25.29;50.23;95046.91;5023832;28;20049;-60
2022/08/11 03:32:01;;;;;;;6.15;4.45;;;;;;;25.34;50.15;95049.56;5024911;28;20044;-60
2022/08/11 03:34:28;;;;;;;4.63;4.07;;;;;;;25.27;50.68;95044.69;5007323;28;20570;-60
2022/08/11 03:37:49;;;;;;;4.95;4.30;;;;;;;25.30;50.27;95049.09;5003238;28;20063;-60
2022/08/11 03:41:41;;;;;;;5.65;4.25;;;;;;;25.29;50.51;95058.59;5024132;28;20079;-56
2022/08/11 03:43:31;;;;;;;6.10;4.53;;;;;;;25.26;50.21;95053.41;5034860;28;20428;-60
2022/08/11 03:46:07;;;;;;;4.70;3.97;;;;;;;25.30;50.45;95059.31;5034624;28;20422;-58
2022/08/11 03:48:47;;;;;;;6.35;4.30;;;;;;;25.30;50.38;95059.31;5043352;28;20449;-59
2022/08/11 03:52:02;;;;;;;5.40;4.50;;;;;;;25.24;50.56;95051.19;5030545;28;20037;-56
2022/08/11 03:54:54;;;;;;;7.03;4.50;;;;;;;25.29;50.27;95057.84;4949320;28;20043;-57
2022/08/11 03:57:56;;;;;;;5.18;4.55;;;;;;;25.22;50.27;95053.00;5026307;28;20041;-58
2022/08/11 04:00:37;;;;;;;6.05;4.30;;;;;;;25.25;50.34;95060.88;5013770;28;20049;-58
2022/08/11 04:03:17;;;;;;;7.35;4.47;;;;;;;25.21;50.65;95060.44;5040973;28;20151;-57
2022/08/11 04:06:01;;;;;;;6.15;4.20;;;;;;;25.25;50.62;95057.41;5031665;28;20591;-58
2022/08/11 04:08:35;;;;;;;4.82;4.35;;;;;;;25.24;50.52;95070.31;5008381;28;20569;-59
2022/08/11 04:11:19;;;;;;;5.40;4.30;;;;;;;25.23;50.88;95066.13;5019545;28;20470;-57
2022/08/11 04:17:25;;;;;;;4.97;4.47;;;;;;;25.21;50.70;95068.63;5054874;28;20111;-56
2022/08/11 04:20:12;;;;;;;6.88;4.40;;;;;;;25.03;50.87;95035.88;5040687;28;20096;-59
2022/08/11 04:22:49;;;;;;;5.13;4.20;;;;;;;25.22;50.66;95061.91;4995583;28;20045;-59
2022/08/11 04:25:30;;;;;;;6.45;4.57;;;;;;;25.24;50.67;95067.59;5022913;28;20025;-57
2022/08/11 04:28:06;;;;;;;6.13;4.00;;;;;;;25.22;50.95;95072.84;5022283;28;20044;-58
2022/08/11 04:31:01;;;;;;;7.15;4.80;;;;;;;25.19;51.08;95070.44;5035767;28;20041;-59
2022/08/11 04:33:43;;;;;;;6.05;4.80;;;;;;;25.03;50.86;95039.34;5031826;28;20040;-58
2022/08/11 04:37:30;;;;;;;5.38;4.70;;;;;;;25.19;51.45;95071.16;5040337;28;20135;-56
2022/08/11 04:39:36;;;;;;;6.13;4.57;;;;;;;25.24;51.38;95070.31;5026540;28;20420;-57
2022/08/11 04:46:02;;;;;;;5.88;4.72;;;;;;;25.36;51.26;95063.44;5019552;28;21144;-57
2022/08/11 05:07:54;;;;;;;8.25;5.13;;;;;;;26.58;48.31;95080.69;5051588;28;20047;-56
2022/08/11 05:10:43;;;;;;;6.30;4.45;;;;;;;26.74;47.85;95079.59;5046112;28;20098;-56
2022/08/11 05:36:16;;;;;;;6.00;4.85;;;;;;;27.48;45.74;95066.72;5048019;28;20036;-57
2022/08/11 05:58:06;;;;;;;9.27;4.50;;;;;;;28.13;45.25;95070.63;5042108;28;20920;-57
2022/08/11 06:00:40;;;;;;;7.50;4.70;;;;;;;28.17;44.56;95070.28;5012649;28;20067;-58
2022/08/11 06:03:09;;;;;;;7.03;4.97;;;;;;;28.18;44.53;95061.50;5049232;28;20041;-59
2022/08/11 06:05:36;;;;;;;6.82;4.57;;;;;;;28.21;45.12;95065.91;5024099;28;20037;-56
2022/08/11 06:08:04;;;;;;;7.28;4.40;;;;;;;28.34;44.35;95076.78;5042601;28;20032;-56
2022/08/11 06:10:34;;;;;;;6.15;4.25;;;;;;;28.38;44.78;95066.19;5043736;28;20083;-56
2022/08/11 06:13:00;;;;;;;6.88;4.20;;;;;;;28.41;44.68;95070.59;5042109;28;20048;-58
2022/08/11 06:15:25;;;;;;;6.05;4.82;;;;;;;28.53;43.84;95069.00;5041159;28;20045;-58
2022/08/11 06:17:52;;;;;;;6.47;4.70;;;;;;;28.43;44.28;95057.03;5024481;28;20059;-59
2022/08/11 06:20:18;;;;;;;6.78;4.95;;;;;;;28.57;43.94;95063.91;5008549;28;20119;-59
2022/08/11 06:22:47;;;;;;;6.57;4.68;;;;;;;28.47;44.16;95051.94;5040960;28;20392;-59
2022/08/11 06:25:13;;;;;;;6.13;4.72;;;;;;;28.65;44.05;95059.19;5042436;28;20032;-59
2022/08/11 06:27:40;;;;;;;6.70;4.55;;;;;;;28.67;44.13;95062.91;5040977;28;20033;-59
2022/08/11 06:30:15;;;;;;;6.18;5.10;;;;;;;28.67;43.67;95051.16;5040945;28;20068;-59
2022/08/11 06:32:43;;;;;;;8.30;4.30;;;;;;;28.71;43.69;95046.75;5034474;28;20041;-59
2022/08/11 06:35:37;;;;;;;7.70;4.50;;;;;;;28.74;43.90;95038.19;5034637;28;20049;-56
2022/08/11 06:38:11;;;;;;;7.50;4.00;;;;;;;28.87;43.46;95054.53;5037998;28;20487;-57
2022/08/11 06:41:29;;;;;;;4.88;3.78;;;;;;;28.81;42.99;95062.22;5040699;28;20033;-60
2022/08/11 06:43:45;;;;;;;5.20;4.00;;;;;;;28.49;43.08;95024.66;5040530;28;20105;-57
2022/08/11 06:46:10;;;;;;;6.70;3.80;;;;;;;28.67;43.75;95062.13;5059871;28;20123;-56
2022/08/11 06:48:38;;;;;;;7.10;4.57;;;;;;;28.59;43.71;95053.81;5042774;28;20040;-56
2022/08/11 06:51:11;;;;;;;6.25;4.28;;;;;;;28.48;43.65;95058.91;5024157;28;20044;-58
2022/08/11 06:53:58;;;;;;;5.78;4.47;;;;;;;28.47;43.82;95060.19;5043686;28;20052;-57
2022/08/11 07:02:14;;;;;;;5.85;3.75;;;;;;;28.12;43.93;95040.94;5033783;28;20109;-57
2022/08/11 07:04:50;;;;;;;5.03;3.63;;;;;;;28.19;43.48;95057.47;5044389;28;20029;-58
2022/08/11 07:16:23;;;;;;;5.30;3.67;;;;;;;27.93;43.75;95068.59;5046721;28;20055;-59
2022/08/11 07:29:55;;;;;;;5.07;3.92;;;;;;;27.49;44.47;95040.78;5062111;28;20121;-58
2022/08/11 07:32:26;;;;;;;5.22;3.50;;;;;;;27.57;44.21;95063.56;5026215;28;20507;-58
2022/08/11 07:34:56;;;;;;;5.38;3.60;;;;;;;27.59;43.80;95066.50;5044081;28;20059;-59
2022/08/11 07:37:22;;;;;;;5.45;3.78;;;;;;;27.49;43.80;95057.97;5061471;28;20074;-59
2022/08/11 07:39:48;;;;;;;7.40;4.03;;;;;;;27.33;43.84;95039.88;5044538;28;20037;-59
2022/08/11 07:42:14;;;;;;;4.28;3.40;;;;;;;27.52;44.05;95067.16;5044440;28;20695;-59
2022/08/11 07:52:53;;;;;;;4.35;3.28;;;;;;;27.34;44.49;95037.91;5045577;28;20036;-58
2022/08/11 07:55:19;;;;;;;4.70;3.58;;;;;;;27.23;44.00;95029.19;5044456;28;20020;-58
2022/08/11 11:19:17;;;;;;;4.88;3.35;;;;;;;26.92;41.27;94693.78;5086611;28;20056;-77
2022/08/11 11:21:43;;;;;;;;;;;;;;;28.50;42.48;94907.97;5095807;28;20043;-80
2022/08/11 11:27:35;;;;;;;4.28;3.35;;;;;;;28.77;42.61;94924.38;5091363;27;20657;-59
2022/08/11 11:30:09;;;;;;;4.10;3.55;;;;;;;28.92;41.67;94940.91;5114169;27;20040;-57
2022/08/11 11:32:34;;;;;;;4.75;3.25;;;;;;;28.90;41.45;94937.97;5053724;28;20045;-54
2022/08/11 11:35:03;;;;;;;4.55;3.55;;;;;;;28.88;41.41;94929.53;5061431;28;20527;-57
2022/08/11 11:37:32;;;;;;;5.07;3.55;;;;;;;28.48;41.67;94886.53;5061545;28;20086;-57
2022/08/11 11:39:57;;;;;;;5.57;3.50;;;;;;;28.71;41.01;94919.59;5044413;28;20043;-58
2022/08/11 11:42:22;;;;;;;4.32;3.53;;;;;;;28.33;41.42;94885.78;5073552;28;20531;-56
2022/08/11 11:44:48;;;;;;;4.80;3.88;;;;;;;28.74;40.63;94908.22;5040130;28;20037;-58
2022/08/11 11:47:14;;;;;;;3.90;3.50;;;;;;;28.76;40.79;94933.91;5060220;28;20068;-56
2022/08/11 11:49:42;;;;;;;4.40;3.33;;;;;;;28.56;41.10;94897.53;5073417;28;20040;-56
2022/08/11 11:52:08;;;;;;;4.68;3.40;;;;;;;28.55;41.34;94918.06;5058443;28;20024;-57
2022/08/11 11:54:35;;;;;;;4.18;3.38;;;;;;;28.62;41.13;94911.84;5056288;28;20040;-57
2022/08/11 12:01:14;;;;;;;3.92;3.45;;;;;;;28.33;41.61;94869.28;5047392;28;20033;-56
2022/08/11 12:02:35;;;;;;;4.43;3.60;;;;;;;27.99;42.00;94851.56;5042692;28;20043;-58
2022/08/11 12:05:00;;;;;;;3.97;3.30;;;;;;;28.59;41.29;94919.16;5093660;28;20105;-57
2022/08/11 12:10:10;;;;;;;4.50;3.53;;;;;;;28.25;42.17;94901.47;5069483;28;20046;-58
2022/08/11 12:15:20;;;;;;;5.10;3.50;;;;;;;28.07;41.92;94858.56;5070044;28;20055;-57
2022/08/11 12:17:45;;;;;;;4.97;3.72;;;;;;;28.42;41.61;94909.97;5063779;28;20037;-57
2022/08/11 12:20:13;;;;;;;4.60;3.97;;;;;;;28.53;41.54;94920.63;5084897;27;20043;-58
2022/08/11 12:28:09;;;;;;;5.70;3.60;;;;;;;28.49;42.07;94909.25;5065032;28;20051;-56
2022/08/11 12:30:35;;;;;;;4.28;3.67;;;;;;;28.44;42.08;94916.38;5068217;28;20029;-58
2022/08/11 12:33:00;;;;;;;4.40;3.75;;;;;;;28.37;42.61;94914.34;5080010;28;20028;-56
2022/08/11 12:35:26;;;;;;;4.10;3.28;;;;;;;28.25;42.45;94917.94;5077560;28;20020;-58
2022/08/11 12:37:54;;;;;;;4.60;3.63;;;;;;;28.25;43.00;94912.47;5066606;28;20020;-56
2022/08/11 12:46:00;;;;;;;4.53;3.58;;;;;;;28.07;43.27;94924.47;5051331;28;20047;-56
2022/08/11 12:51:57;;;;;;;5.80;3.72;;;;;;;28.04;43.32;94925.53;5070995;28;20067;-57
2022/08/11 12:54:27;;;;;;;6.00;3.25;;;;;;;28.05;42.91;94931.75;5090092;28;20040;-56
2022/08/11 13:05:13;;;;;;;4.18;3.10;;;;;;;28.07;42.46;94918.97;5050484;28;20098;-56
2022/08/11 13:07:41;;;;;;;3.97;3.10;;;;;;;27.98;42.68;94915.97;5071516;28;20028;-57
2022/08/11 13:10:08;;;;;;;5.25;3.60;;;;;;;27.73;42.50;94869.03;5080769;28;20029;-56
2022/08/11 13:12:48;;;;;;;5.13;3.53;;;;;;;28.12;42.98;94931.81;5080601;28;20052;-57
2022/08/11 13:15:22;;;;;;;6.22;3.00;;;;;;;28.16;42.84;94925.97;5053916;28;20052;-54
2022/08/11 13:17:48;;;;;;;4.53;3.17;;;;;;;27.53;42.34;94851.88;5095021;28;20692;-57
2022/08/11 13:20:18;;;;;;;3.72;2.85;;;;;;;27.87;42.57;94900.56;5079355;28;20041;-56
2022/08/11 13:22:45;;;;;;;3.83;2.90;;;;;;;28.09;43.04;94927.41;5029394;28;20158;-53
2022/08/11 13:25:12;;;;;;;3.58;2.72;;;;;;;28.10;42.62;94912.41;5067111;28;20131;-53
2022/08/11 13:27:38;;;;;;;3.42;2.65;;;;;;;28.18;42.83;94929.66;5047807;28;20045;-58
2022/08/11 13:32:48;;;;;;;3.85;2.72;;;;;;;27.82;42.06;94846.56;5060988;28;20048;-57
2022/08/11 13:35:16;;;;;;;4.78;3.00;;;;;;;28.13;41.62;94916.84;5092716;28;20048;-57
2022/08/11 13:37:43;;;;;;;4.30;2.88;;;;;;;27.46;41.88;94858.78;5093105;28;20059;-58
2022/08/11 13:40:10;;;;;;;4.07;2.60;;;;;;;27.69;41.85;94917.28;5046832;28;20415;-57
2022/08/11 13:42:36;;;;;;;3.40;2.65;;;;;;;27.82;41.90;94909.69;5062404;28;20109;-56
2022/08/11 13:45:01;;;;;;;2.97;2.65;;;;;;;27.77;41.68;94910.59;5072720;28;20036;-57
2022/08/11 13:47:27;;;;;;;3.13;2.83;;;;;;;27.60;41.61;94870.41;5086099;28;20052;-58
2022/08/11 13:49:52;;;;;;;4.45;2.83;;;;;;;27.73;41.35;94869.03;5068743;28;20481;-57
2022/08/11 13:52:18;;;;;;;6.05;3.05;;;;;;;27.91;41.25;94900.22;5065976;28;20055;-58
2022/08/11 13:54:45;;;;;;;14.38;4.43;;;;;;;27.91;41.81;94895.47;5080311;28;20044;-57
2022/08/11 13:57:13;;;;;;;5.55;2.72;;;;;;;27.71;42.33;94826.19;5065136;28;20051;-56
2022/08/11 13:59:39;;;;;;;4.95;2.58;;;;;;;28.14;41.57;94890.81;5065367;28;20101;-55
2022/08/11 14:02:07;;;;;;;6.55;3.15;;;;;;;28.24;41.77;94900.03;5069817;28;20037;-56
2022/08/11 14:04:50;;;;;;;4.75;2.67;;;;;;;28.29;41.88;94896.38;5077890;28;20025;-56
2022/08/11 14:07:19;;;;;;;5.32;2.80;;;;;;;28.15;41.68;94870.31;5068031;28;20140;-56
2022/08/11 14:09:44;;;;;;;3.63;2.80;;;;;;;28.20;41.60;94855.69;5081748;28;20188;-56
2022/08/11 14:15:23;;;;;;;3.80;2.47;;;;;;;28.38;41.39;94887.59;5057666;28;20521;-55
2022/08/11 14:18:15;;;;;;;3.67;2.67;;;;;;;28.37;41.40;94891.63;5043481;28;20425;-54
2022/08/11 14:23:27;;;;;;;3.13;2.80;;;;;;;28.29;40.93;94852.41;5059265;28;20055;-56
2022/08/11 14:26:42;;;;;;;2.80;2.45;;;;;;;28.41;41.47;94870.03;5063843;28;20040;-56
2022/08/11 14:28:40;;;;;;;3.03;2.67;;;;;;;28.54;40.99;94873.34;5027815;28;20414;-56
2022/08/11 14:31:07;;;;;;;2.67;2.33;;;;;;;28.66;41.10;94884.75;5086332;28;20159;-56
2022/08/11 14:33:33;;;;;;;3.38;2.35;;;;;;;28.66;40.58;94879.25;5059906;28;20485;-53
2022/08/11 14:35:59;;;;;;;2.70;2.38;;;;;;;28.44;40.89;94846.97;5059415;28;20039;-57
2022/08/11 14:38:24;;;;;;;4.28;2.80;;;;;;;28.75;40.48;94882.94;5043132;28;20131;-56
2022/08/11 14:49:02;;;;;;;3.33;3.00;;;;;;;28.83;40.23;94861.72;5046902;28;20564;-55
2022/08/11 14:51:27;;;;;;;4.43;3.00;;;;;;;28.96;39.64;94875.28;5079644;28;20041;-54
2022/08/11 14:56:34;;;;;;;4.05;3.42;;;;;;;28.81;40.25;94847.03;5076785;28;20037;-56
2022/08/11 14:56:39;;;;;;;4.18;3.15;;;;;;;29.07;40.26;94879.69;5069337;28;20035;-56
2022/08/11 14:59:04;;;;;;;4.28;3.35;;;;;;;28.78;39.83;94873.59;5064642;28;20036;-56
2022/08/11 15:04:15;;;;;;;3.22;2.90;;;;;;;29.21;39.64;94870.69;5063915;28;20043;-55
2022/08/11 15:06:41;;;;;;;4.00;2.97;;;;;;;28.54;38.96;94746.22;5085411;28;20040;-56
2022/08/11 15:09:07;;;;;;;3.60;3.30;;;;;;;30.12;37.92;94870.72;5079058;28;20069;-55
2022/08/11 15:17:06;;;;;;;4.15;3.47;;;;;;;30.17;37.00;94828.44;5067857;28;20541;-55
2022/08/11 15:17:08;;;;;;;3.47;3.10;;;;;;;29.58;38.46;94817.63;5068117;28;20562;-57
2022/08/11 15:19:34;;;;;;;4.00;3.08;;;;;;;29.30;38.76;94826.16;5074559;28;20040;-57
2022/08/11 15:24:43;;;;;;;4.18;3.35;;;;;;;28.94;39.73;94850.34;5075308;28;20488;-57
2022/08/11 15:38:10;;;;;;;3.50;3.20;;;;;;;28.64;40.39;94854.31;5073362;28;20097;-56
2022/08/11 15:46:48;;;;;;;3.20;2.90;;;;;;;28.53;40.84;94865.66;5063751;28;20592;-56
2022/08/11 15:49:30;;;;;;;3.97;3.40;;;;;;;28.20;40.54;94844.69;5073905;28;20631;-56
2022/08/11 15:52:09;;;;;;;4.25;3.08;;;;;;;28.13;40.46;94831.69;5079046;28;20048;-57
2022/08/11 15:54:40;;;;;;;7.70;3.30;;;;;;;27.99;40.64;94841.31;5064844;28;20465;-56
2022/08/11 15:57:06;;;;;;;6.20;3.45;;;;;;;27.92;40.65;94833.78;5059502;28;20040;-55
2022/08/11 16:05:04;;;;;;;3.92;2.70;;;;;;;27.82;40.74;94868.50;5070280;28;20051;-55
2022/08/11 16:07:34;;;;;;;4.93;2.97;;;;;;;27.68;40.75;94860.19;5077991;28;20028;-55
2022/08/11 16:09:59;;;;;;;4.47;3.20;;;;;;;27.74;40.18;94881.47;5075574;28;20106;-56
2022/08/11 16:12:27;;;;;;;4.47;2.70;;;;;;;27.59;40.25;94863.44;5062036;28;20048;-55
2022/08/11 16:17:51;;;;;;;3.45;2.60;;;;;;;27.60;39.73;94870.41;5081106;28;20430;-55
2022/08/11 16:20:19;;;;;;;3.80;2.65;;;;;;;27.56;39.79;94870.00;5086475;28;20044;-57
2022/08/11 16:22:46;;;;;;;3.97;2.42;;;;;;;27.11;39.83;94820.34;5083109;28;20259;-56
2022/08/11 16:25:22;;;;;;;4.65;2.90;;;;;;;27.52;40.10;94886.06;5084086;28;20434;-56
2022/08/11 16:28:05;;;;;;;3.63;2.78;;;;;;;27.47;40.53;94878.72;5075151;28;20120;-55
2022/08/11 16:30:31;;;;;;;4.45;2.92;;;;;;;27.37;39.67;94864.03;5064881;28;20052;-56
2022/08/11 16:32:57;;;;;;;3.47;2.55;;;;;;;27.29;40.24;94855.00;5073706;28;20041;-57
2022/08/11 16:40:52;;;;;;;6.57;3.38;;;;;;;27.33;40.50;94874.59;5064697;28;20046;-55
2022/08/11 16:48:48;;;;;;;4.63;3.28;;;;;;;27.15;40.73;94870.09;5055093;28;20047;-55
2022/08/11 16:51:13;;;;;;;4.30;2.88;;;;;;;27.30;40.67;94886.66;5077127;28;20040;-55
2022/08/11 16:53:39;;;;;;;5.45;3.17;;;;;;;27.09;40.45;94872.22;5082186;28;20036;-55
2022/08/11 16:56:05;;;;;;;5.35;2.75;;;;;;;26.69;40.67;94811.97;5046080;28;20075;-55
2022/08/11 17:01:16;;;;;;;5.22;3.00;;;;;;;27.06;40.57;94883.53;5070585;28;20048;-57
2022/08/11 17:14:47;;;;;;;5.03;3.10;;;;;;;26.66;40.92;94845.91;5066603;28;20039;-55
2022/08/11 17:17:17;;;;;;;;;;;;;;;27.16;40.86;94909.94;5081981;28;20530;-56
2022/08/11 17:19:49;;;;;;;4.72;3.35;;;;;;;27.09;41.18;94921.59;5082923;28;19912;-55
2022/08/11 17:24:59;;;;;;;5.72;3.70;;;;;;;26.92;41.06;94906.81;5056293;28;20050;-58
2022/08/11 17:27:25;;;;;;;5.00;3.50;;;;;;;27.02;41.16;94922.25;5052614;28;20041;-54
2022/08/11 17:29:55;;;;;;;4.22;3.05;;;;;;;27.02;40.89;94927.72;5079563;28;20044;-55
2022/08/11 17:35:29;;;;;;;4.85;3.33;;;;;;;26.63;41.20;94842.22;5061940;28;20637;-53
2022/08/11 17:38:19;;;;;;;4.30;3.40;;;;;;;27.11;41.67;94938.22;5048869;28;20052;-58
2022/08/11 17:48:59;;;;;;;4.60;3.30;;;;;;;26.83;42.03;94946.34;5053924;28;20513;-56
2022/08/11 17:59:52;;;;;;;5.90;3.92;;;;;;;27.27;41.39;94953.53;5063467;28;20047;-56
2022/08/11 18:05:30;;;;;;;5.50;3.80;;;;;;;27.18;41.35;94958.78;5061361;28;20062;-58
